createdAt,value
2018-04-10T00:00:46.053Z,56.75
2018-04-10T00:03:12.000Z,56.64
2018-04-10T00:05:37.933Z,56.63
2018-04-10T00:08:03.881Z,56.48
2018-04-10T00:10:29.903Z,56.62
2018-04-10T00:12:55.867Z,56.60
2018-04-10T00:15:21.824Z,56.54
2018-04-10T00:17:47.789Z,56.64
2018-04-10T00:20:13.720Z,56.47
2018-04-10T00:22:39.691Z,56.59
2018-04-10T00:25:05.653Z,56.54
2018-04-10T00:27:31.595Z,56.59
2018-04-10T00:29:57.563Z,56.39
2018-04-10T00:32:23.499Z,56.40
2018-04-10T00:34:49.451Z,56.51
2018-04-10T00:37:15.411Z,56.56
2018-04-10T00:39:41.368Z,56.46
2018-04-10T00:42:07.316Z,56.69
2018-04-10T00:44:33.251Z,56.82
2018-04-10T00:46:59.208Z,56.85
2018-04-10T00:49:25.187Z,56.54
2018-04-10T00:51:51.115Z,56.58
2018-04-10T00:54:17.060Z,56.60
2018-04-10T00:56:42.996Z,56.51
2018-04-10T00:59:08.944Z,56.56
2018-04-10T01:01:34.899Z,56.65
2018-04-10T01:04:00.843Z,56.48
2018-04-10T01:06:26.786Z,56.52
2018-04-10T01:08:52.769Z,56.65
2018-04-10T01:11:18.703Z,56.48
2018-04-10T01:13:44.647Z,56.54
2018-04-10T01:16:10.599Z,56.48
2018-04-10T01:18:36.556Z,56.37
2018-04-10T01:21:02.510Z,56.45
2018-04-10T01:23:28.492Z,56.38
2018-04-10T01:25:54.509Z,56.39
2018-04-10T01:28:20.487Z,56.52
2018-04-10T01:30:46.415Z,56.65
2018-04-10T01:33:12.376Z,56.83
2018-04-10T01:35:38.311Z,56.73
2018-04-10T01:38:04.243Z,56.90
2018-04-10T01:40:30.241Z,56.59
2018-04-10T01:42:56.195Z,56.51
2018-04-10T01:45:22.169Z,56.57
2018-04-10T01:47:48.099Z,56.56
2018-04-10T01:50:14.051Z,56.63
2018-04-10T01:52:40.018Z,56.48
2018-04-10T01:55:05.978Z,56.64
2018-04-10T01:57:31.923Z,56.58
2018-04-10T01:59:57.872Z,56.59
2018-04-10T02:02:23.822Z,56.46
2018-04-10T02:04:49.748Z,56.45
2018-04-10T02:07:15.696Z,56.44
2018-04-10T02:09:41.639Z,56.40
2018-04-10T02:12:07.582Z,56.59
2018-04-10T02:14:33.623Z,56.51
2018-04-10T02:16:59.572Z,56.59
2018-04-10T02:19:25.528Z,56.65
2018-04-10T02:21:51.530Z,56.67
2018-04-10T02:24:17.508Z,56.85
2018-04-10T02:26:43.443Z,56.75
2018-04-10T02:29:09.505Z,56.81
2018-04-10T02:31:35.471Z,56.61
2018-04-10T02:34:01.407Z,56.48
2018-04-10T02:36:27.476Z,56.63
2018-04-10T02:38:53.424Z,56.46
2018-04-10T02:41:19.351Z,56.50
2018-04-10T02:43:45.371Z,56.48
2018-04-10T02:46:11.304Z,56.59
2018-04-10T02:48:37.263Z,56.45
2018-04-10T02:51:03.207Z,56.60
2018-04-10T02:53:29.172Z,56.38
2018-04-10T02:55:55.109Z,56.50
2018-04-10T02:58:21.101Z,56.61
2018-04-10T03:00:47.032Z,56.47
2018-04-10T03:03:13.025Z,56.48
2018-04-10T03:05:38.933Z,56.58
2018-04-10T03:08:04.877Z,56.70
2018-04-10T03:10:30.816Z,56.95
2018-04-10T03:12:56.762Z,56.77
2018-04-10T03:15:22.694Z,56.86
2018-04-10T03:17:48.627Z,56.65
2018-04-10T03:20:14.569Z,56.51
2018-04-10T03:22:40.507Z,56.59
2018-04-10T03:25:06.448Z,56.50
2018-04-10T03:27:32.442Z,56.72
2018-04-10T03:29:58.378Z,56.63
2018-04-10T03:32:24.320Z,56.55
2018-04-10T03:34:50.267Z,56.47
2018-04-10T03:37:16.220Z,56.63
2018-04-10T03:39:42.175Z,56.52
2018-04-10T03:42:08.195Z,56.51
2018-04-10T03:44:34.151Z,56.60
2018-04-10T03:47:00.092Z,56.61
2018-04-10T03:49:26.031Z,56.51
2018-04-10T03:51:51.983Z,56.62
2018-04-10T03:54:17.965Z,56.70
2018-04-10T03:56:43.901Z,56.95
2018-04-10T03:59:09.900Z,56.81
2018-04-10T04:01:35.839Z,56.96
2018-04-10T04:04:01.789Z,56.99
2018-04-10T04:06:27.729Z,56.73
2018-04-10T04:08:53.733Z,57.33
2018-04-10T04:11:19.668Z,56.87
2018-04-10T04:13:45.654Z,56.74
2018-04-10T04:16:11.591Z,56.73
2018-04-10T04:18:37.551Z,56.71
2018-04-10T04:21:03.524Z,56.63
2018-04-10T04:23:29.485Z,56.60
2018-04-10T04:25:55.424Z,56.75
2018-04-10T04:28:21.469Z,56.79
2018-04-10T04:30:47.439Z,56.69
2018-04-10T04:33:13.375Z,56.73
2018-04-10T04:35:39.400Z,56.69
2018-04-10T04:38:05.338Z,56.65
2018-04-10T04:40:31.303Z,56.80
2018-04-10T04:42:57.247Z,57.00
2018-04-10T04:45:23.192Z,56.92
2018-04-10T04:47:49.131Z,56.98
2018-04-10T04:50:15.081Z,56.96
2018-04-10T04:52:41.144Z,56.93
2018-04-10T04:55:07.088Z,56.80
2018-04-10T04:57:33.058Z,56.76
2018-04-10T04:59:58.990Z,56.89
2018-04-10T05:02:24.923Z,56.89
2018-04-10T05:04:50.988Z,56.80
2018-04-10T05:07:16.928Z,56.75
2018-04-10T05:09:42.883Z,56.77
2018-04-10T05:12:08.856Z,56.84
2018-04-10T05:14:34.900Z,56.88
2018-04-10T05:17:00.839Z,56.65
2018-04-10T05:19:26.775Z,56.74
2018-04-10T05:21:52.718Z,56.74
2018-04-10T05:24:18.651Z,56.62
2018-04-10T05:26:44.636Z,56.70
2018-04-10T05:29:10.573Z,56.60
2018-04-10T05:31:36.514Z,56.53
2018-04-10T05:34:02.496Z,56.70
2018-04-10T05:36:28.429Z,56.66
2018-04-10T05:38:54.382Z,56.79
2018-04-10T05:41:20.364Z,56.80
2018-04-10T05:43:46.319Z,56.98
2018-04-10T05:46:12.282Z,56.81
2018-04-10T05:48:38.227Z,56.80
2018-04-10T05:51:04.256Z,56.71
2018-04-10T05:53:30.183Z,56.75
2018-04-10T05:55:56.147Z,56.54
2018-04-10T05:58:22.085Z,56.65
2018-04-10T06:00:48.031Z,56.78
2018-04-10T06:03:13.964Z,56.83
2018-04-10T06:05:39.928Z,56.72
2018-04-10T06:08:05.880Z,56.61
2018-04-10T06:10:31.819Z,56.73
2018-04-10T06:12:57.779Z,56.75
2018-04-10T06:15:23.759Z,56.68
2018-04-10T06:17:49.728Z,56.67
2018-04-10T06:20:15.681Z,56.83
2018-04-10T06:22:41.634Z,56.81
2018-04-10T06:25:07.579Z,56.82
2018-04-10T06:27:33.531Z,56.87
2018-04-10T06:29:59.472Z,56.97
2018-04-10T06:32:25.423Z,56.80
2018-04-10T06:34:51.363Z,56.89
2018-04-10T06:37:17.382Z,56.89
2018-04-10T06:39:43.319Z,56.88
2018-04-10T06:42:09.263Z,56.77
2018-04-10T06:44:35.231Z,56.94
2018-04-10T06:47:01.189Z,56.83
2018-04-10T06:49:27.129Z,56.59
2018-04-10T06:51:53.143Z,56.66
2018-04-10T06:54:19.180Z,56.74
2018-04-10T06:56:45.196Z,56.75
2018-04-10T06:59:11.268Z,56.80
2018-04-10T07:01:37.305Z,56.86
2018-04-10T07:04:03.210Z,56.74
2018-04-10T07:06:29.261Z,56.70
2018-04-10T07:08:55.242Z,56.76
2018-04-10T07:11:21.269Z,56.88
2018-04-10T07:13:47.215Z,57.00
2018-04-10T07:16:13.177Z,56.96
2018-04-10T07:18:39.131Z,57.13
2018-04-10T07:21:05.068Z,56.87
2018-04-10T07:23:31.034Z,56.83
2018-04-10T07:25:56.975Z,56.86
2018-04-10T07:28:22.931Z,56.68
2018-04-10T07:30:48.907Z,56.73
2018-04-10T07:33:14.856Z,56.47
2018-04-10T07:35:40.803Z,56.58
2018-04-10T07:38:06.787Z,57.13
2018-04-10T07:40:32.732Z,57.26
2018-04-10T07:42:58.675Z,56.96
2018-04-10T07:45:24.644Z,56.78
2018-04-10T07:47:50.544Z,56.85
2018-04-10T07:50:16.508Z,56.78
2018-04-10T07:52:42.463Z,56.83
2018-04-10T07:55:08.411Z,56.79
2018-04-10T07:57:34.367Z,57.01
2018-04-10T08:00:00.441Z,56.91
2018-04-10T08:02:26.396Z,56.62
2018-04-10T08:04:52.339Z,56.80
2018-04-10T08:07:18.403Z,57.02
2018-04-10T08:09:44.368Z,56.80
2018-04-10T08:12:10.315Z,57.01
2018-04-10T08:14:36.288Z,57.01
2018-04-10T08:17:02.320Z,57.05
2018-04-10T08:19:28.282Z,57.09
2018-04-10T08:21:54.266Z,56.92
2018-04-10T08:24:20.209Z,56.96
2018-04-10T08:26:46.146Z,57.03
2018-04-10T08:29:12.096Z,57.17
2018-04-10T08:31:38.063Z,57.08
2018-04-10T08:34:04.023Z,56.98
2018-04-10T08:36:30.044Z,56.94
2018-04-10T08:38:55.985Z,56.98
2018-04-10T08:41:21.970Z,56.94
2018-04-10T08:43:47.930Z,56.99
2018-04-10T08:46:13.850Z,57.10
2018-04-10T08:48:39.792Z,57.20
2018-04-10T08:51:05.739Z,57.05
2018-04-10T08:53:31.709Z,56.95
2018-04-10T08:55:57.774Z,57.04
2018-04-10T08:58:23.788Z,57.26
2018-04-10T09:00:49.732Z,57.01
2018-04-10T09:03:15.675Z,57.11
2018-04-10T09:05:41.620Z,57.03
2018-04-10T09:08:07.556Z,57.29
2018-04-10T09:10:33.676Z,57.35
2018-04-10T09:12:59.627Z,57.43
2018-04-10T09:15:25.680Z,56.97
2018-04-10T09:17:51.632Z,56.93
2018-04-10T09:20:17.598Z,57.00
2018-04-10T09:22:43.539Z,57.39
2018-04-10T09:25:09.520Z,57.04
2018-04-10T09:27:35.490Z,57.10
2018-04-10T09:30:01.432Z,57.10
2018-04-10T09:32:27.499Z,57.05
2018-04-10T09:34:53.455Z,56.99
2018-04-10T09:37:19.408Z,56.92
2018-04-10T09:39:45.355Z,56.96
2018-04-10T09:42:11.303Z,56.95
2018-04-10T09:44:37.253Z,57.00
2018-04-10T09:47:03.187Z,57.00
2018-04-10T09:49:29.153Z,56.98
2018-04-10T09:51:55.095Z,56.97
2018-04-10T09:54:21.139Z,57.05
2018-04-10T09:56:47.132Z,56.93
2018-04-10T09:59:13.179Z,56.86
2018-04-10T10:01:39.132Z,56.88
2018-04-10T10:04:05.103Z,56.91
2018-04-10T10:06:31.061Z,56.86
2018-04-10T10:08:57.006Z,56.83
2018-04-10T10:11:22.984Z,56.79
2018-04-10T10:13:48.921Z,56.83
2018-04-10T10:16:14.892Z,56.79
2018-04-10T10:18:40.847Z,56.72
2018-04-10T10:21:06.787Z,56.70
2018-04-10T10:23:32.732Z,56.56
2018-04-10T10:25:58.765Z,56.62
2018-04-10T10:28:24.703Z,56.84
2018-04-10T10:30:50.654Z,56.84
2018-04-10T10:33:16.611Z,56.83
2018-04-10T10:35:42.560Z,56.94
2018-04-10T10:38:08.487Z,56.88
2018-04-10T10:40:34.428Z,56.97
2018-04-10T10:43:00.381Z,57.14
2018-04-10T10:45:26.321Z,57.10
2018-04-10T10:47:52.263Z,57.08
2018-04-10T10:50:18.232Z,57.09
2018-04-10T10:52:44.209Z,57.10
2018-04-10T10:55:10.118Z,57.10
2018-04-10T10:57:36.087Z,57.01
2018-04-10T11:00:02.033Z,57.07
2018-04-10T11:02:27.990Z,57.17
2018-04-10T11:04:53.931Z,57.09
2018-04-10T11:07:19.908Z,57.06
2018-04-10T11:09:45.875Z,57.29
2018-04-10T11:12:11.816Z,57.32
2018-04-10T11:14:37.752Z,57.26
2018-04-10T11:17:03.699Z,57.44
2018-04-10T11:19:29.676Z,57.46
2018-04-10T11:21:55.609Z,57.44
2018-04-10T11:24:21.569Z,57.40
2018-04-10T11:26:47.511Z,57.26
2018-04-10T11:29:13.482Z,57.24
2018-04-10T11:31:39.428Z,57.36
2018-04-10T11:34:05.370Z,57.29
2018-04-10T11:36:31.297Z,57.41
2018-04-10T11:38:57.247Z,57.20
2018-04-10T11:41:23.201Z,57.26
2018-04-10T11:43:49.141Z,57.30
2018-04-10T11:46:15.135Z,57.23
2018-04-10T11:48:41.096Z,57.22
2018-04-10T11:51:07.048Z,57.21
2018-04-10T11:53:32.992Z,57.22
2018-04-10T11:55:58.935Z,57.15
2018-04-10T11:58:24.903Z,57.21
2018-04-10T12:00:50.887Z,57.27
2018-04-10T12:03:16.823Z,57.35
2018-04-10T12:05:42.768Z,57.44
2018-04-10T12:08:08.733Z,57.49
2018-04-10T12:10:34.768Z,57.48
2018-04-10T12:13:00.728Z,57.56
2018-04-10T12:15:26.661Z,57.43
2018-04-10T12:17:52.603Z,57.56
2018-04-10T12:20:18.555Z,57.35
2018-04-10T12:22:44.492Z,57.50
2018-04-10T12:25:10.447Z,57.51
2018-04-10T12:27:36.387Z,57.40
2018-04-10T12:30:02.447Z,57.35
2018-04-10T12:32:28.391Z,57.46
2018-04-10T12:34:54.423Z,57.37
2018-04-10T12:37:20.364Z,57.38
2018-04-10T12:39:46.314Z,57.36
2018-04-10T12:42:12.272Z,57.27
2018-04-10T12:44:38.227Z,57.33
2018-04-10T12:47:04.169Z,57.09
2018-04-10T12:49:30.120Z,57.20
2018-04-10T12:51:56.088Z,57.26
2018-04-10T12:54:22.056Z,57.24
2018-04-10T12:56:48.079Z,57.29
2018-04-10T12:59:14.110Z,56.87
2018-04-10T13:01:40.138Z,56.34
2018-04-10T13:04:06.177Z,56.06
2018-04-10T13:06:32.111Z,55.94
2018-04-10T13:08:58.068Z,55.56
2018-04-10T13:11:24.029Z,55.85
2018-04-10T13:13:50.082Z,55.40
2018-04-10T13:16:16.052Z,55.35
2018-04-10T13:18:42.031Z,55.73
2018-04-10T13:21:07.977Z,55.37
2018-04-10T13:23:33.917Z,55.49
2018-04-10T13:25:59.873Z,55.67
2018-04-10T13:28:25.812Z,55.50
2018-04-10T13:30:51.783Z,55.75
2018-04-10T13:33:17.720Z,55.59
2018-04-10T13:35:43.829Z,57.24
2018-04-10T13:38:09.872Z,56.26
2018-04-10T13:40:35.808Z,56.69
2018-04-10T13:43:02.042Z,56.09
2018-04-10T13:45:27.983Z,56.02
2018-04-10T13:47:53.954Z,56.17
2018-04-10T13:50:20.009Z,56.09
2018-04-10T13:52:45.944Z,56.20
2018-04-10T13:55:11.903Z,55.93
2018-04-10T13:57:37.847Z,56.40
2018-04-10T14:00:03.784Z,56.14
2018-04-10T14:02:29.742Z,56.67
2018-04-10T14:04:55.745Z,56.92
2018-04-10T14:07:21.723Z,56.81
2018-04-10T14:09:47.664Z,56.76
2018-04-10T14:12:13.617Z,56.92
2018-04-10T14:14:39.558Z,56.57
2018-04-10T14:17:05.514Z,56.88
2018-04-10T14:19:31.449Z,56.96
2018-04-10T14:21:57.407Z,56.90
2018-04-10T14:24:23.379Z,56.76
2018-04-10T14:26:49.323Z,56.46
2018-04-10T14:29:15.275Z,56.73
2018-04-10T14:31:41.246Z,56.16
2018-04-10T14:34:07.183Z,57.11
2018-04-10T14:36:33.135Z,57.07
2018-04-10T14:38:59.096Z,57.33
2018-04-10T14:41:25.087Z,56.96
2018-04-10T14:43:51.083Z,56.83
2018-04-10T14:46:17.027Z,56.46
2018-04-10T14:48:42.984Z,56.20
2018-04-10T14:51:08.936Z,56.53
2018-04-10T14:53:34.899Z,56.54
2018-04-10T14:56:00.847Z,56.51
2018-04-10T14:58:26.810Z,56.40
2018-04-10T15:00:52.772Z,56.57
2018-04-10T15:03:18.704Z,56.31
2018-04-10T15:05:44.656Z,55.43
2018-04-10T15:08:10.614Z,55.00
2018-04-10T15:10:36.589Z,55.28
2018-04-10T15:13:02.535Z,54.49
2018-04-10T15:15:28.518Z,54.45
2018-04-10T15:17:54.453Z,54.44
2018-04-10T15:20:20.431Z,54.69
2018-04-10T15:22:46.387Z,55.52
2018-04-10T15:25:12.343Z,54.47
2018-04-10T15:27:38.296Z,55.17
2018-04-10T15:30:04.327Z,54.42
2018-04-10T15:32:30.271Z,54.15
2018-04-10T15:34:56.314Z,54.02
2018-04-10T15:37:22.276Z,53.57
2018-04-10T15:39:48.228Z,54.07
2018-04-10T15:42:14.175Z,53.73
2018-04-10T15:44:40.229Z,53.79
2018-04-10T15:47:06.237Z,53.22
2018-04-10T15:49:32.139Z,52.81
2018-04-10T15:51:58.096Z,53.07
2018-04-10T15:54:24.066Z,52.27
2018-04-10T15:56:50.019Z,52.11
2018-04-10T15:59:15.970Z,52.96
2018-04-10T16:01:41.952Z,52.77
2018-04-10T16:04:07.908Z,52.29
2018-04-10T16:06:33.957Z,52.18
2018-04-10T16:08:59.939Z,53.23
2018-04-10T16:11:25.896Z,52.50
2018-04-10T16:13:51.930Z,52.70
2018-04-10T16:16:17.892Z,52.21
2018-04-10T16:18:43.845Z,52.99
2018-04-10T16:21:09.807Z,52.07
2018-04-10T16:23:35.779Z,52.77
2018-04-10T16:26:01.766Z,52.09
2018-04-10T16:28:27.707Z,52.62
2018-04-10T16:30:53.675Z,51.63
2018-04-10T16:33:19.618Z,52.01
2018-04-10T16:35:45.584Z,52.08
2018-04-10T16:38:11.633Z,51.74
2018-04-10T16:40:37.642Z,51.96
2018-04-10T16:43:03.582Z,52.58
2018-04-10T16:45:29.538Z,52.17
2018-04-10T16:47:55.492Z,51.75
2018-04-10T16:50:21.439Z,51.83
2018-04-10T16:52:47.400Z,52.48
2018-04-10T16:55:13.425Z,52.48
2018-04-10T16:57:39.400Z,52.68
2018-04-10T17:00:05.335Z,51.78
2018-04-10T17:02:31.401Z,52.34
2018-04-10T17:04:57.416Z,52.10
2018-04-10T17:07:23.435Z,52.50
2018-04-10T17:09:49.383Z,52.82
2018-04-10T17:12:15.476Z,51.70
2018-04-10T17:14:41.454Z,51.61
2018-04-10T17:17:07.435Z,51.90
2018-04-10T17:19:33.412Z,51.54
2018-04-10T17:21:59.358Z,51.91
2018-04-10T17:24:25.400Z,52.88
2018-04-10T17:26:51.376Z,53.03
2018-04-10T17:29:17.323Z,53.03
2018-04-10T17:31:43.336Z,53.23
2018-04-10T17:34:09.284Z,53.82
2018-04-10T17:36:35.235Z,54.08
2018-04-10T17:39:01.316Z,54.22
2018-04-10T17:41:27.372Z,54.52
2018-04-10T17:43:53.358Z,54.02
2018-04-10T17:46:19.316Z,55.00
2018-04-10T17:48:45.348Z,54.58
2018-04-10T17:51:11.312Z,55.21
2018-04-10T17:53:37.264Z,54.92
2018-04-10T17:56:03.263Z,54.63
2018-04-10T17:58:29.212Z,54.76
2018-04-10T18:00:55.167Z,55.14
2018-04-10T18:03:21.122Z,54.93
2018-04-10T18:05:47.090Z,54.89
2018-04-10T18:08:13.064Z,54.90
2018-04-10T18:10:39.004Z,55.21
2018-04-10T18:13:04.963Z,55.24
2018-04-10T18:15:30.916Z,55.21
2018-04-10T18:17:56.884Z,55.14
2018-04-10T18:20:22.872Z,55.37
2018-04-10T18:22:48.825Z,55.25
2018-04-10T18:25:14.801Z,55.20
2018-04-10T18:27:40.732Z,55.39
2018-04-10T18:30:06.728Z,55.46
2018-04-10T18:32:32.691Z,55.77
2018-04-10T18:34:58.656Z,55.91
2018-04-10T18:37:24.673Z,55.81
2018-04-10T18:39:50.628Z,56.20
2018-04-10T18:42:16.632Z,55.70
2018-04-10T18:44:42.597Z,55.43
2018-04-10T18:47:08.547Z,56.45
2018-04-10T18:49:34.495Z,55.99
2018-04-10T18:52:00.457Z,56.12
2018-04-10T18:54:26.400Z,55.95
2018-04-10T18:56:52.339Z,56.19
2018-04-10T18:59:18.316Z,55.85
2018-04-10T19:01:44.289Z,55.86
2018-04-10T19:04:10.242Z,55.88
2018-04-10T19:06:36.233Z,56.26
2018-04-10T19:09:02.185Z,56.33
2018-04-10T19:11:28.160Z,56.04
2018-04-10T19:13:54.124Z,56.08
2018-04-10T19:16:20.057Z,56.23
2018-04-10T19:18:46.005Z,56.42
2018-04-10T19:21:11.953Z,56.45
2018-04-10T19:23:37.943Z,56.37
2018-04-10T19:26:03.884Z,56.41
2018-04-10T19:28:29.857Z,56.27
2018-04-10T19:30:55.898Z,56.31
2018-04-10T19:33:21.880Z,56.45
2018-04-10T19:35:47.828Z,56.37
2018-04-10T19:38:13.830Z,56.20
2018-04-10T19:40:39.785Z,56.07
2018-04-10T19:43:05.736Z,56.27
2018-04-10T19:45:31.748Z,56.22
2018-04-10T19:47:57.695Z,56.27
2018-04-10T19:50:23.680Z,56.28
2018-04-10T19:52:49.639Z,56.21
2018-04-10T19:55:15.623Z,56.21
2018-04-10T19:57:41.579Z,56.10
2018-04-10T20:00:07.552Z,56.06
2018-04-10T20:02:33.509Z,56.21
2018-04-10T20:04:59.450Z,56.12
2018-04-10T20:07:25.472Z,56.10
2018-04-10T20:09:51.447Z,56.27
2018-04-10T20:12:17.461Z,56.33
2018-04-10T20:14:43.416Z,56.40
2018-04-10T20:17:09.360Z,56.57
2018-04-10T20:19:35.327Z,56.50
2018-04-10T20:22:01.297Z,56.41
2018-04-10T20:24:27.267Z,56.36
2018-04-10T20:26:53.918Z,56.26
2018-04-10T20:29:19.893Z,56.10
2018-04-10T20:31:45.859Z,56.25
2018-04-10T20:34:11.803Z,56.25
2018-04-10T20:36:37.765Z,56.28
2018-04-10T20:39:03.720Z,56.36
2018-04-10T20:41:29.691Z,56.47
2018-04-10T20:43:55.762Z,56.31
2018-04-10T20:46:21.731Z,56.32
2018-04-10T20:48:47.727Z,56.45
2018-04-10T20:51:13.663Z,56.33
2018-04-10T20:53:39.607Z,56.22
2018-04-10T20:56:05.580Z,56.27
2018-04-10T20:58:31.535Z,56.38
2018-04-10T21:00:57.532Z,56.45
2018-04-10T21:03:23.490Z,56.44
2018-04-10T21:05:49.435Z,56.59
2018-04-10T21:08:15.376Z,56.91
2018-04-10T21:10:41.331Z,56.79
2018-04-10T21:13:07.281Z,56.66
2018-04-10T21:15:33.235Z,56.62
2018-04-10T21:17:59.497Z,56.69
2018-04-10T21:20:25.432Z,56.74
2018-04-10T21:22:51.403Z,56.24
2018-04-10T21:25:17.391Z,56.30
2018-04-10T21:27:43.343Z,56.43
2018-04-10T21:30:09.307Z,56.57
2018-04-10T21:32:35.268Z,56.57
2018-04-10T21:35:01.211Z,56.35
2018-04-10T21:37:27.190Z,56.84
2018-04-10T21:39:53.151Z,56.67
2018-04-10T21:42:19.104Z,56.67
2018-04-10T21:44:45.075Z,56.82
2018-04-10T21:47:11.039Z,56.84
2018-04-10T21:49:37.016Z,56.86
2018-04-10T21:52:02.992Z,56.87
2018-04-10T21:54:28.927Z,56.89
2018-04-10T21:56:54.882Z,56.73
2018-04-10T21:59:20.815Z,56.84
2018-04-10T22:01:46.796Z,56.63
2018-04-10T22:04:12.757Z,56.57
2018-04-10T22:06:38.687Z,56.88
2018-04-10T22:09:04.708Z,56.65
2018-04-10T22:11:30.650Z,56.62
2018-04-10T22:13:56.624Z,56.66
2018-04-10T22:16:23.616Z,56.55
2018-04-10T22:18:49.568Z,56.56
2018-04-10T22:21:15.511Z,56.54
2018-04-10T22:23:41.491Z,56.59
2018-04-10T22:26:07.452Z,56.94
2018-04-10T22:28:33.403Z,56.76
2018-04-10T22:30:59.364Z,56.72
2018-04-10T22:33:25.424Z,56.95
2018-04-10T22:35:51.332Z,56.96
2018-04-10T22:38:17.309Z,57.22
2018-04-10T22:40:43.251Z,57.41
2018-04-10T22:43:09.212Z,57.31
2018-04-10T22:45:35.376Z,57.22
2018-04-10T22:48:01.358Z,57.54
2018-04-10T22:50:27.381Z,57.22
2018-04-10T22:52:53.334Z,57.42
2018-04-10T22:55:19.295Z,57.21
2018-04-10T22:57:45.257Z,56.95
2018-04-10T23:00:11.204Z,56.96
2018-04-10T23:02:37.182Z,56.73
2018-04-10T23:05:03.132Z,56.78
2018-04-10T23:07:29.078Z,56.62
2018-04-10T23:09:55.068Z,56.63
2018-04-10T23:12:21.015Z,56.42
2018-04-10T23:14:46.981Z,56.59
2018-04-10T23:17:12.928Z,56.62
2018-04-10T23:19:38.879Z,56.54
2018-04-10T23:22:04.812Z,56.54
2018-04-10T23:24:30.765Z,56.55
2018-04-10T23:26:56.708Z,56.94
2018-04-10T23:29:22.651Z,57.03
2018-04-10T23:31:48.622Z,57.14
2018-04-10T23:34:14.567Z,57.16
2018-04-10T23:36:40.600Z,57.26
2018-04-10T23:39:06.535Z,57.07
2018-04-10T23:41:32.513Z,57.09
2018-04-10T23:43:58.500Z,57.03
2018-04-10T23:46:24.537Z,56.86
2018-04-10T23:48:50.476Z,56.86
2018-04-10T23:51:16.409Z,56.92
2018-04-10T23:53:42.345Z,56.85
2018-04-10T23:56:08.288Z,56.78
2018-04-10T23:58:34.252Z,56.96
